Feldbach, Austria
Current Conditions -  °F | °C
As of 9:50 AM on Wednesday 26 Nov 2014 (Local Time) from LOWG Reporting Station
Haze Haze  
Wind Chill: 32°   Ceiling: 700
Heat Index: 37°   Visibility: 2mi
Dew Point: 36°   Wind: 7mph
Humidity: 93%   Direction: 150°SSE
Pressure: 30.21"   Gusts: NA
Location:  46.96°N, 15.89°E
Report Text: LOWG 260750Z 15006KT 3200 BR FEW004 BKN007 OVC020 03/02 Q1023 TEMPO 2500 BKN006 OVC020
Loading
Personal Weather Stations






























Interactive Weather Map New forecast layout! Learn more

10-Day Weather Forecast

Advertisements
Track Severe Weather on mobile